Aurora — V7BS9 — position and weather

sailwx.info

Track history (hours):
 
Tides and Currents Weather Stations Pressure Air Temp Water Temp Dewpoint Dewpoint Depression Visibility Wind Speed Wind Dir Waves Ship Positions

Aurora

Last reported at 2014-Nov-26 17:33 UTC. Time now 2014-Nov-28 08:34 UTC.
Position N 34°29' W 076°38'.

Length 170 m; draft 6.2 m.

Type: Tanker. MMSI: 538001356.

Date/timePositionNaut miles runAvg speedWind from/ knotsBaromVisibWave heightAir tempDewpointWater temp
2014-Nov-26 17:33N 34°29' W 076°38'7 6.7
2014-Nov-26 16:33N 34°36' W 076°39'2 2.1
2014-Nov-26 15:32N 34°38' W 076°39'0 0.0
2014-Nov-26 14:29N 34°38' W 076°39'0 0.0
2014-Nov-26 13:32N 34°38' W 076°39'0 0.0
2014-Nov-26 12:32N 34°38' W 076°39'0 0.0
2014-Nov-26 11:32N 34°38' W 076°39'0 0.0
2014-Nov-26 10:29N 34°38' W 076°40'0 0.0
2014-Nov-26 09:32N 34°38' W 076°40'0 0.0
2014-Nov-26 08:32N 34°38' W 076°40'0 0.0
2014-Nov-26 07:29N 34°38' W 076°40'0 0.1
2014-Nov-26 06:32N 34°38' W 076°40'0 0.0
2014-Nov-26 05:29N 34°38' W 076°40'0 0.0
2014-Nov-26 04:32N 34°38' W 076°40'0 0.0
2014-Nov-26 03:33N 34°38' W 076°40'0 0.0
2014-Nov-26 02:30N 34°38' W 076°40'0 0.0
2014-Nov-26 01:33N 34°38' W 076°40'0 0.0
2014-Nov-26 00:30N 34°38' W 076°40'0 0.0
2014-Nov-25 23:33N 34°38' W 076°40'0 0.0
2014-Nov-25 22:33N 34°38' W 076°40'0 0.0
2014-Nov-25 21:33N 34°38' W 076°40'0 0.0
2014-Nov-25 20:33N 34°38' W 076°40'0 0.0
2014-Nov-25 19:32N 34°38' W 076°39'0 0.0
2014-Nov-25 18:32N 34°38' W 076°39'0 0.0
2014-Nov-25 17:32N 34°38' W 076°39'0 0.0
2014-Nov-25 16:32N 34°38' W 076°39'0 0.1
2014-Nov-25 15:31N 34°38' W 076°39'0 0.0
2014-Nov-25 14:31N 34°38' W 076°39'0 0.0
2014-Nov-25 13:31N 34°38' W 076°39'0 0.0
2014-Nov-25 12:31N 34°38' W 076°39'0 0.0
2014-Nov-25 11:31N 34°38' W 076°39'0 0.0
2014-Nov-25 10:31N 34°38' W 076°39'0 0.1
2014-Nov-25 09:31N 34°38' W 076°39'0 0.0
2014-Nov-25 08:31N 34°38' W 076°39'0 0.0
2014-Nov-25 07:31N 34°38' W 076°39'0 0.0
2014-Nov-25 06:31N 34°38' W 076°39'0 0.0
2014-Nov-25 05:32N 34°38' W 076°39'0 0.0
2014-Nov-25 04:32N 34°38' W 076°39'0 0.0
2014-Nov-25 03:33N 34°38' W 076°39'0 0.1
2014-Nov-25 02:33N 34°38' W 076°39'0 0.0
2014-Nov-25 01:33N 34°38' W 076°39'0 0.0
2014-Nov-25 00:33N 34°38' W 076°39'0 0.0
2014-Nov-24 23:33N 34°38' W 076°39'0 0.0
2014-Nov-24 22:33N 34°38' W 076°39'0 0.0
2014-Nov-24 21:27N 34°38' W 076°39'0 0.0
2014-Nov-24 20:33N 34°38' W 076°39'0 0.1
2014-Nov-24 19:33N 34°38' W 076°39'0 0.0
2014-Nov-24 18:33N 34°38' W 076°39'0 0.0
2014-Nov-24 17:33N 34°38' W 076°39'0 0.0
2014-Nov-24 16:33N 34°38' W 076°39'0 0.0
2014-Nov-24 15:33N 34°38' W 076°39'0 0.1
2014-Nov-24 14:33N 34°38' W 076°39'1 0.9
2014-Nov-24 13:33N 34°37' W 076°39'9 2.0
2014-Nov-24 09:14N 34°29' W 076°38'3 4.4
2014-Nov-24 08:33N 34°32' W 076°39'5 5.0
2014-Nov-24 07:33N 34°37' W 076°40'2 2.2
2014-Nov-24 06:33N 34°39' W 076°40'0 0.1
2014-Nov-24 05:33N 34°39' W 076°40'1 0.7
2014-Nov-24 04:31N 34°38' W 076°39'0 0.4
2014-Nov-24 03:29N 34°38' W 076°40'0 0.1
2014-Nov-24 02:32N 34°38' W 076°40'0 0.2
2014-Nov-24 01:32N 34°38' W 076°39'0 0.0
2014-Nov-24 00:32N 34°38' W 076°39'0 0.0
2014-Nov-23 23:32N 34°38' W 076°39'0 0.0
2014-Nov-23 22:32N 34°38' W 076°40'0 0.0
2014-Nov-23 21:32N 34°38' W 076°39'0 0.0
2014-Nov-23 20:32N 34°38' W 076°39'0 0.1
2014-Nov-23 19:32N 34°38' W 076°39'0 0.0
2014-Nov-23 18:32N 34°38' W 076°39'0 0.0
2014-Nov-23 17:32N 34°38' W 076°39'0 0.0
2014-Nov-23 16:32N 34°38' W 076°39'0 0.0
2014-Nov-23 15:32N 34°38' W 076°39'0 0.0
2014-Nov-23 14:32N 34°38' W 076°39'0 0.0
2014-Nov-23 13:32N 34°38' W 076°39'0 0.0
2014-Nov-23 12:32N 34°38' W 076°39'0 0.0
2014-Nov-23 11:32N 34°38' W 076°39'0 0.0
2014-Nov-23 10:29N 34°38' W 076°39'0 0.0
2014-Nov-23 09:32N 34°38' W 076°39'0 0.0
2014-Nov-23 08:32N 34°38' W 076°39'0 0.0
2014-Nov-23 07:32N 34°38' W 076°39'0 0.1
2014-Nov-23 06:32N 34°38' W 076°39'0 0.1
2014-Nov-23 05:31N 34°38' W 076°39'0 0.0
2014-Nov-23 04:31N 34°38' W 076°39'0 0.0
2014-Nov-23 03:31N 34°38' W 076°39'0 0.0
2014-Nov-23 02:32N 34°38' W 076°39'0 0.1
2014-Nov-23 01:32N 34°38' W 076°39'0 0.0
2014-Nov-23 00:31N 34°38' W 076°39'0 0.0
2014-Nov-22 23:31N 34°38' W 076°39'0 0.0
2014-Nov-22 22:31N 34°38' W 076°39'0 0.0
2014-Nov-22 21:31N 34°38' W 076°39'0 0.0
2014-Nov-22 20:31N 34°38' W 076°39'0 0.0
2014-Nov-22 19:33N 34°38' W 076°39'0 0.0
2014-Nov-22 18:33N 34°38' W 076°39'0 0.0
2014-Nov-22 17:29N 34°38' W 076°39'0 0.1
2014-Nov-22 16:32N 34°38' W 076°39'0 0.0
2014-Nov-22 15:33N 34°38' W 076°39'0 0.0
2014-Nov-22 14:32N 34°38' W 076°39'0 0.0
2014-Nov-22 13:29N 34°38' W 076°39'0 0.0
2014-Nov-22 12:31N 34°38' W 076°39'0 0.0
2014-Nov-22 11:28N 34°38' W 076°39'0 0.0
2014-Nov-22 10:31N 34°38' W 076°39'0 0.0
2014-Nov-22 09:33N 34°38' W 076°39'0 0.0
2014-Nov-22 08:33N 34°38' W 076°39'0 0.0
2014-Nov-22 07:32N 34°38' W 076°39'0 0.0
2014-Nov-22 06:32N 34°38' W 076°39'0 0.0
2014-Nov-22 05:32N 34°38' W 076°39'0 0.0
2014-Nov-22 04:32N 34°38' W 076°39'0 0.0
2014-Nov-22 03:31N 34°38' W 076°39'0 0.0
2014-Nov-22 02:31N 34°38' W 076°39'0 0.0
2014-Nov-22 01:31N 34°38' W 076°39'0 0.0
2014-Nov-22 00:31N 34°38' W 076°39'0 0.0
2014-Nov-21 23:28N 34°38' W 076°39'0 0.0
2014-Nov-21 22:31N 34°38' W 076°39'0 0.0
2014-Nov-21 21:34N 34°38' W 076°39'0 0.1
2014-Nov-21 20:34N 34°38' W 076°39'0 0.0
2014-Nov-21 19:33N 34°38' W 076°39'2 2.5
2014-Nov-21 18:33N 34°40' W 076°40'3 2.9
2014-Nov-21 17:33N 34°43' W 076°41'0 0.0
2014-Nov-21 16:31N 34°43' W 076°41'0 0.0
2014-Nov-21 15:31N 34°43' W 076°41'0 0.0
2014-Nov-21 14:31N 34°43' W 076°41'0 0.0
2014-Nov-21 13:31N 34°43' W 076°41'0 0.0
2014-Nov-21 12:31N 34°43' W 076°41'0 0.0
2014-Nov-21 11:31N 34°43' W 076°41'0 0.0
2014-Nov-21 10:31N 34°43' W 076°41'0 0.0
2014-Nov-21 09:31N 34°43' W 076°41'0 0.0
2014-Nov-21 08:31N 34°43' W 076°41'0 0.0
2014-Nov-21 07:31N 34°43' W 076°41'0 0.0
2014-Nov-21 06:31N 34°43' W 076°41'0 0.0
2014-Nov-21 05:31N 34°43' W 076°41'0 0.0
2014-Nov-21 04:32N 34°43' W 076°41'0 0.0
2014-Nov-21 03:32N 34°43' W 076°41'0 0.0
2014-Nov-21 02:32N 34°43' W 076°41'0 0.0
2014-Nov-21 01:32N 34°43' W 076°41'0 0.0
2014-Nov-21 00:32N 34°43' W 076°41'0 0.0
2014-Nov-20 23:32N 34°43' W 076°41'0 0.0
2014-Nov-20 22:32N 34°43' W 076°41'0 0.0
2014-Nov-20 21:29N 34°43' W 076°41'0 0.0
2014-Nov-20 20:32N 34°43' W 076°41'0 0.0
2014-Nov-20 19:32N 34°43' W 076°41'0 0.0
2014-Nov-20 18:32N 34°43' W 076°41'0 0.0
2014-Nov-20 17:32N 34°43' W 076°41'0 0.0
2014-Nov-20 16:32N 34°43' W 076°41'0 0.0
2014-Nov-20 15:32N 34°43' W 076°41'0 0.0
2014-Nov-20 14:32N 34°43' W 076°41'0 0.0
2014-Nov-20 13:32N 34°43' W 076°41'0 0.0
2014-Nov-20 12:32N 34°43' W 076°41'0 0.0
2014-Nov-20 11:31N 34°43' W 076°41'0 0.0
2014-Nov-20 10:31N 34°43' W 076°41'0 0.0
2014-Nov-20 09:31N 34°43' W 076°41'0 0.0
2014-Nov-20 08:32N 34°43' W 076°41'0 0.0
2014-Nov-20 07:33N 34°43' W 076°41'0 0.0
2014-Nov-20 06:33N 34°43' W 076°41'0 0.0
2014-Nov-20 05:33N 34°43' W 076°41'0 0.0
2014-Nov-20 04:33N 34°43' W 076°41'0 0.0
2014-Nov-20 03:33N 34°43' W 076°41'0 0.0
2014-Nov-20 02:33N 34°43' W 076°41'0 0.0
2014-Nov-20 01:33N 34°43' W 076°41'0 0.0
2014-Nov-20 00:33N 34°43' W 076°41'0 0.0
2014-Nov-19 23:33N 34°43' W 076°41'0 0.0
2014-Nov-19 22:33N 34°43' W 076°41'0 0.0
2014-Nov-19 21:33N 34°43' W 076°41'0 0.0
2014-Nov-19 20:33N 34°43' W 076°41'0 0.0
2014-Nov-19 19:33N 34°43' W 076°41'0 0.0
2014-Nov-19 18:33N 34°43' W 076°41'0 0.0
2014-Nov-19 17:33N 34°43' W 076°41'0 0.0
2014-Nov-19 16:33N 34°43' W 076°41'0 0.0
2014-Nov-19 15:33N 34°43' W 076°41'0 0.0
2014-Nov-19 14:33N 34°43' W 076°41'0 0.0
2014-Nov-19 13:33N 34°43' W 076°41'0 0.0
2014-Nov-19 12:33N 34°43' W 076°41'0 0.0
2014-Nov-19 11:33N 34°43' W 076°41'0 0.0
2014-Nov-19 10:33N 34°43' W 076°41'0 0.0
2014-Nov-19 09:33N 34°43' W 076°41'0 0.0
2014-Nov-19 08:33N 34°43' W 076°41'0 0.0
2014-Nov-19 07:33N 34°43' W 076°41'0 0.0
2014-Nov-19 06:33N 34°43' W 076°41'0 0.0
2014-Nov-19 05:33N 34°43' W 076°41'0 0.0
2014-Nov-19 04:33N 34°43' W 076°41'0 0.0
2014-Nov-19 03:33N 34°43' W 076°41'0 0.0
2014-Nov-19 02:33N 34°43' W 076°41'0 0.0
2014-Nov-19 01:33N 34°43' W 076°41'0 0.0
2014-Nov-19 00:33N 34°43' W 076°41'0 0.0
2014-Nov-18 23:32N 34°43' W 076°41'0 0.0
2014-Nov-18 22:32N 34°43' W 076°41'0 0.0
2014-Nov-18 21:29N 34°43' W 076°41'0 0.0
2014-Nov-18 20:33N 34°43' W 076°41'0 0.0
2014-Nov-18 19:30N 34°43' W 076°41'0 0.0
2014-Nov-18 18:33N 34°43' W 076°41'0 0.0
2014-Nov-18 17:33N 34°43' W 076°41'0 0.0
2014-Nov-18 16:33N 34°43' W 076°41'0 0.0
2014-Nov-18 15:31N 34°43' W 076°41'0 0.0
2014-Nov-18 14:31N 34°43' W 076°41'0 0.0
2014-Nov-18 13:33N 34°43' W 076°41'0 0.0
2014-Nov-18 12:33N 34°43' W 076°41'1 1.2
2014-Nov-18 11:33N 34°42' W 076°41'6 6.4
2014-Nov-18 10:33N 34°36' W 076°40'  
Track history (hours):
 
Tides and Currents Weather Stations Pressure Air Temp Water Temp Dewpoint Dewpoint Depression Visibility Wind Speed Wind Dir Waves Ship Positions

Aurora

Last reported at 2014-Nov-26 17:33 UTC. Time now 2014-Nov-28 08:34 UTC.
Position N 34°29' W 076°38'.

Length 170 m; draft 6.2 m.

Type: Tanker. MMSI: 538001356.

Date/timePositionNaut miles runAvg speedWind from/ knotsBaromVisibWave heightAir tempDewpointWater temp
2014-Nov-26 17:33N 34°29' W 076°38'7 6.7
2014-Nov-26 16:33N 34°36' W 076°39'2 2.1
2014-Nov-26 15:32N 34°38' W 076°39'0 0.0
2014-Nov-26 14:29N 34°38' W 076°39'0 0.0
2014-Nov-26 13:32N 34°38' W 076°39'0 0.0
2014-Nov-26 12:32N 34°38' W 076°39'0 0.0
2014-Nov-26 11:32N 34°38' W 076°39'0 0.0
2014-Nov-26 10:29N 34°38' W 076°40'0 0.0
2014-Nov-26 09:32N 34°38' W 076°40'0 0.0
2014-Nov-26 08:32N 34°38' W 076°40'0 0.0
2014-Nov-26 07:29N 34°38' W 076°40'0 0.1
2014-Nov-26 06:32N 34°38' W 076°40'0 0.0
2014-Nov-26 05:29N 34°38' W 076°40'0 0.0
2014-Nov-26 04:32N 34°38' W 076°40'0 0.0
2014-Nov-26 03:33N 34°38' W 076°40'0 0.0
2014-Nov-26 02:30N 34°38' W 076°40'0 0.0
2014-Nov-26 01:33N 34°38' W 076°40'0 0.0
2014-Nov-26 00:30N 34°38' W 076°40'0 0.0
2014-Nov-25 23:33N 34°38' W 076°40'0 0.0
2014-Nov-25 22:33N 34°38' W 076°40'0 0.0
2014-Nov-25 21:33N 34°38' W 076°40'0 0.0
2014-Nov-25 20:33N 34°38' W 076°40'0 0.0
2014-Nov-25 19:32N 34°38' W 076°39'0 0.0
2014-Nov-25 18:32N 34°38' W 076°39'0 0.0
2014-Nov-25 17:32N 34°38' W 076°39'0 0.0
2014-Nov-25 16:32N 34°38' W 076°39'0 0.1
2014-Nov-25 15:31N 34°38' W 076°39'0 0.0
2014-Nov-25 14:31N 34°38' W 076°39'0 0.0
2014-Nov-25 13:31N 34°38' W 076°39'0 0.0
2014-Nov-25 12:31N 34°38' W 076°39'0 0.0
2014-Nov-25 11:31N 34°38' W 076°39'0 0.0
2014-Nov-25 10:31N 34°38' W 076°39'0 0.1
2014-Nov-25 09:31N 34°38' W 076°39'0 0.0
2014-Nov-25 08:31N 34°38' W 076°39'0 0.0
2014-Nov-25 07:31N 34°38' W 076°39'0 0.0
2014-Nov-25 06:31N 34°38' W 076°39'0 0.0
2014-Nov-25 05:32N 34°38' W 076°39'0 0.0
2014-Nov-25 04:32N 34°38' W 076°39'0 0.0
2014-Nov-25 03:33N 34°38' W 076°39'0 0.1
2014-Nov-25 02:33N 34°38' W 076°39'0 0.0
2014-Nov-25 01:33N 34°38' W 076°39'0 0.0
2014-Nov-25 00:33N 34°38' W 076°39'0 0.0
2014-Nov-24 23:33N 34°38' W 076°39'0 0.0
2014-Nov-24 22:33N 34°38' W 076°39'0 0.0
2014-Nov-24 21:27N 34°38' W 076°39'0 0.0
2014-Nov-24 20:33N 34°38' W 076°39'0 0.1
2014-Nov-24 19:33N 34°38' W 076°39'0 0.0
2014-Nov-24 18:33N 34°38' W 076°39'0 0.0
2014-Nov-24 17:33N 34°38' W 076°39'0 0.0
2014-Nov-24 16:33N 34°38' W 076°39'0 0.0
2014-Nov-24 15:33N 34°38' W 076°39'0 0.1
2014-Nov-24 14:33N 34°38' W 076°39'1 0.9
2014-Nov-24 13:33N 34°37' W 076°39'9 2.0
2014-Nov-24 09:14N 34°29' W 076°38'3 4.4
2014-Nov-24 08:33N 34°32' W 076°39'5 5.0
2014-Nov-24 07:33N 34°37' W 076°40'2 2.2
2014-Nov-24 06:33N 34°39' W 076°40'0 0.1
2014-Nov-24 05:33N 34°39' W 076°40'1 0.7
2014-Nov-24 04:31N 34°38' W 076°39'0 0.4
2014-Nov-24 03:29N 34°38' W 076°40'0 0.1
2014-Nov-24 02:32N 34°38' W 076°40'0 0.2
2014-Nov-24 01:32N 34°38' W 076°39'0 0.0
2014-Nov-24 00:32N 34°38' W 076°39'0 0.0
2014-Nov-23 23:32N 34°38' W 076°39'0 0.0
2014-Nov-23 22:32N 34°38' W 076°40'0 0.0
2014-Nov-23 21:32N 34°38' W 076°39'0 0.0
2014-Nov-23 20:32N 34°38' W 076°39'0 0.1
2014-Nov-23 19:32N 34°38' W 076°39'0 0.0
2014-Nov-23 18:32N 34°38' W 076°39'0 0.0
2014-Nov-23 17:32N 34°38' W 076°39'0 0.0
2014-Nov-23 16:32N 34°38' W 076°39'0 0.0
2014-Nov-23 15:32N 34°38' W 076°39'0 0.0
2014-Nov-23 14:32N 34°38' W 076°39'0 0.0
2014-Nov-23 13:32N 34°38' W 076°39'0 0.0
2014-Nov-23 12:32N 34°38' W 076°39'0 0.0
2014-Nov-23 11:32N 34°38' W 076°39'0 0.0
2014-Nov-23 10:29N 34°38' W 076°39'0 0.0
2014-Nov-23 09:32N 34°38' W 076°39'0 0.0
2014-Nov-23 08:32N 34°38' W 076°39'0 0.0
2014-Nov-23 07:32N 34°38' W 076°39'0 0.1
2014-Nov-23 06:32N 34°38' W 076°39'0 0.1
2014-Nov-23 05:31N 34°38' W 076°39'0 0.0
2014-Nov-23 04:31N 34°38' W 076°39'0 0.0
2014-Nov-23 03:31N 34°38' W 076°39'0 0.0
2014-Nov-23 02:32N 34°38' W 076°39'0 0.1
2014-Nov-23 01:32N 34°38' W 076°39'0 0.0
2014-Nov-23 00:31N 34°38' W 076°39'0 0.0
2014-Nov-22 23:31N 34°38' W 076°39'0 0.0
2014-Nov-22 22:31N 34°38' W 076°39'0 0.0
2014-Nov-22 21:31N 34°38' W 076°39'0 0.0
2014-Nov-22 20:31N 34°38' W 076°39'0 0.0
2014-Nov-22 19:33N 34°38' W 076°39'0 0.0
2014-Nov-22 18:33N 34°38' W 076°39'0 0.0
2014-Nov-22 17:29N 34°38' W 076°39'0 0.1
2014-Nov-22 16:32N 34°38' W 076°39'0 0.0
2014-Nov-22 15:33N 34°38' W 076°39'0 0.0
2014-Nov-22 14:32N 34°38' W 076°39'0 0.0
2014-Nov-22 13:29N 34°38' W 076°39'0 0.0
2014-Nov-22 12:31N 34°38' W 076°39'0 0.0
2014-Nov-22 11:28N 34°38' W 076°39'0 0.0
2014-Nov-22 10:31N 34°38' W 076°39'0 0.0
2014-Nov-22 09:33N 34°38' W 076°39'0 0.0
2014-Nov-22 08:33N 34°38' W 076°39'0 0.0
2014-Nov-22 07:32N 34°38' W 076°39'0 0.0
2014-Nov-22 06:32N 34°38' W 076°39'0 0.0
2014-Nov-22 05:32N 34°38' W 076°39'0 0.0
2014-Nov-22 04:32N 34°38' W 076°39'0 0.0
2014-Nov-22 03:31N 34°38' W 076°39'0 0.0
2014-Nov-22 02:31N 34°38' W 076°39'0 0.0
2014-Nov-22 01:31N 34°38' W 076°39'0 0.0
2014-Nov-22 00:31N 34°38' W 076°39'0 0.0
2014-Nov-21 23:28N 34°38' W 076°39'0 0.0
2014-Nov-21 22:31N 34°38' W 076°39'0 0.0
2014-Nov-21 21:34N 34°38' W 076°39'0 0.1
2014-Nov-21 20:34N 34°38' W 076°39'0 0.0
2014-Nov-21 19:33N 34°38' W 076°39'2 2.5
2014-Nov-21 18:33N 34°40' W 076°40'3 2.9
2014-Nov-21 17:33N 34°43' W 076°41'0 0.0
2014-Nov-21 16:31N 34°43' W 076°41'0 0.0
2014-Nov-21 15:31N 34°43' W 076°41'0 0.0
2014-Nov-21 14:31N 34°43' W 076°41'0 0.0
2014-Nov-21 13:31N 34°43' W 076°41'0 0.0
2014-Nov-21 12:31N 34°43' W 076°41'0 0.0
2014-Nov-21 11:31N 34°43' W 076°41'0 0.0
2014-Nov-21 10:31N 34°43' W 076°41'0 0.0
2014-Nov-21 09:31N 34°43' W 076°41'0 0.0
2014-Nov-21 08:31N 34°43' W 076°41'0 0.0
2014-Nov-21 07:31N 34°43' W 076°41'0 0.0
2014-Nov-21 06:31N 34°43' W 076°41'0 0.0
2014-Nov-21 05:31N 34°43' W 076°41'0 0.0
2014-Nov-21 04:32N 34°43' W 076°41'0 0.0
2014-Nov-21 03:32N 34°43' W 076°41'0 0.0
2014-Nov-21 02:32N 34°43' W 076°41'0 0.0
2014-Nov-21 01:32N 34°43' W 076°41'0 0.0
2014-Nov-21 00:32N 34°43' W 076°41'0 0.0
2014-Nov-20 23:32N 34°43' W 076°41'0 0.0
2014-Nov-20 22:32N 34°43' W 076°41'0 0.0
2014-Nov-20 21:29N 34°43' W 076°41'0 0.0
2014-Nov-20 20:32N 34°43' W 076°41'0 0.0
2014-Nov-20 19:32N 34°43' W 076°41'0 0.0
2014-Nov-20 18:32N 34°43' W 076°41'0 0.0
2014-Nov-20 17:32N 34°43' W 076°41'0 0.0
2014-Nov-20 16:32N 34°43' W 076°41'0 0.0
2014-Nov-20 15:32N 34°43' W 076°41'0 0.0
2014-Nov-20 14:32N 34°43' W 076°41'0 0.0
2014-Nov-20 13:32N 34°43' W 076°41'0 0.0
2014-Nov-20 12:32N 34°43' W 076°41'0 0.0
2014-Nov-20 11:31N 34°43' W 076°41'0 0.0
2014-Nov-20 10:31N 34°43' W 076°41'0 0.0
2014-Nov-20 09:31N 34°43' W 076°41'0 0.0
2014-Nov-20 08:32N 34°43' W 076°41'0 0.0
2014-Nov-20 07:33N 34°43' W 076°41'0 0.0
2014-Nov-20 06:33N 34°43' W 076°41'0 0.0
2014-Nov-20 05:33N 34°43' W 076°41'0 0.0
2014-Nov-20 04:33N 34°43' W 076°41'0 0.0
2014-Nov-20 03:33N 34°43' W 076°41'0 0.0
2014-Nov-20 02:33N 34°43' W 076°41'0 0.0
2014-Nov-20 01:33N 34°43' W 076°41'0 0.0
2014-Nov-20 00:33N 34°43' W 076°41'0 0.0
2014-Nov-19 23:33N 34°43' W 076°41'0 0.0
2014-Nov-19 22:33N 34°43' W 076°41'0 0.0
2014-Nov-19 21:33N 34°43' W 076°41'0 0.0
2014-Nov-19 20:33N 34°43' W 076°41'0 0.0
2014-Nov-19 19:33N 34°43' W 076°41'0 0.0
2014-Nov-19 18:33N 34°43' W 076°41'0 0.0
2014-Nov-19 17:33N 34°43' W 076°41'0 0.0
2014-Nov-19 16:33N 34°43' W 076°41'0 0.0
2014-Nov-19 15:33N 34°43' W 076°41'0 0.0
2014-Nov-19 14:33N 34°43' W 076°41'0 0.0
2014-Nov-19 13:33N 34°43' W 076°41'0 0.0
2014-Nov-19 12:33N 34°43' W 076°41'0 0.0
2014-Nov-19 11:33N 34°43' W 076°41'0 0.0
2014-Nov-19 10:33N 34°43' W 076°41'0 0.0
2014-Nov-19 09:33N 34°43' W 076°41'0 0.0
2014-Nov-19 08:33N 34°43' W 076°41'0 0.0
2014-Nov-19 07:33N 34°43' W 076°41'0 0.0
2014-Nov-19 06:33N 34°43' W 076°41'0 0.0
2014-Nov-19 05:33N 34°43' W 076°41'0 0.0
2014-Nov-19 04:33N 34°43' W 076°41'0 0.0
2014-Nov-19 03:33N 34°43' W 076°41'0 0.0
2014-Nov-19 02:33N 34°43' W 076°41'0 0.0
2014-Nov-19 01:33N 34°43' W 076°41'0 0.0
2014-Nov-19 00:33N 34°43' W 076°41'0 0.0
2014-Nov-18 23:32N 34°43' W 076°41'0 0.0
2014-Nov-18 22:32N 34°43' W 076°41'0 0.0
2014-Nov-18 21:29N 34°43' W 076°41'0 0.0
2014-Nov-18 20:33N 34°43' W 076°41'0 0.0
2014-Nov-18 19:30N 34°43' W 076°41'0 0.0
2014-Nov-18 18:33N 34°43' W 076°41'0 0.0
2014-Nov-18 17:33N 34°43' W 076°41'0 0.0
2014-Nov-18 16:33N 34°43' W 076°41'0 0.0
2014-Nov-18 15:31N 34°43' W 076°41'0 0.0
2014-Nov-18 14:31N 34°43' W 076°41'0 0.0
2014-Nov-18 13:33N 34°43' W 076°41'0 0.0
2014-Nov-18 12:33N 34°43' W 076°41'1 1.2
2014-Nov-18 11:33N 34°42' W 076°41'6 6.4
2014-Nov-18 10:33N 34°36' W 076°40'  

Dump ship's entire track history